createdAt,value
2018-04-07T00:00:40.065Z,17.60
2018-04-07T00:03:08.494Z,18.50
2018-04-07T00:05:36.901Z,16.93
2018-04-07T00:08:05.338Z,18.57
2018-04-07T00:10:33.791Z,18.83
2018-04-07T00:13:02.224Z,18.37
2018-04-07T00:15:30.669Z,18.57
2018-04-07T00:17:59.135Z,19.03
2018-04-07T00:20:27.546Z,18.03
2018-04-07T00:22:56.013Z,16.50
2018-04-07T00:25:24.405Z,18.93
2018-04-07T00:27:52.844Z,18.83
2018-04-07T00:30:21.294Z,19.30
2018-04-07T00:32:49.773Z,18.30
2018-04-07T00:35:18.278Z,18.60
2018-04-07T00:37:46.752Z,16.47
2018-04-07T00:40:15.173Z,17.93
2018-04-07T00:42:43.662Z,20.13
2018-04-07T00:45:12.081Z,17.40
2018-04-07T00:47:40.482Z,16.13
2018-04-07T00:50:08.946Z,16.63
2018-04-07T00:52:49.175Z,18.10
2018-04-07T00:55:17.661Z,17.43
2018-04-07T00:57:46.120Z,16.17
2018-04-07T01:00:14.546Z,18.43
2018-04-07T01:02:42.951Z,15.90
2018-04-07T01:05:11.340Z,14.17
2018-04-07T01:07:39.760Z,16.67
2018-04-07T01:10:08.173Z,17.00
2018-04-07T01:12:36.632Z,17.00
2018-04-07T01:15:05.051Z,14.30
2018-04-07T01:17:33.511Z,15.10
2018-04-07T01:20:01.899Z,14.90
2018-04-07T01:22:30.289Z,14.00
2018-04-07T01:24:58.772Z,15.67
2018-04-07T01:27:27.145Z,15.10
2018-04-07T01:29:55.640Z,12.40
2018-04-07T01:32:24.028Z,14.17
2018-04-07T01:34:52.430Z,12.67
2018-04-07T01:37:20.808Z,14.07
2018-04-07T01:39:49.311Z,13.83
2018-04-07T01:42:17.737Z,13.10
2018-04-07T01:44:46.205Z,12.17
2018-04-07T01:47:14.652Z,12.60
2018-04-07T01:49:43.059Z,12.57
2018-04-07T01:52:11.496Z,11.47
2018-04-07T01:54:39.967Z,11.27
2018-04-07T01:57:08.360Z,10.67
2018-04-07T01:59:36.813Z,12.17
2018-04-07T02:02:05.267Z,11.83
2018-04-07T02:04:33.717Z,10.97
2018-04-07T02:07:02.136Z,11.57
2018-04-07T02:09:30.598Z,11.87
2018-04-07T02:11:59.037Z,12.70
2018-04-07T02:14:27.482Z,12.27
2018-04-07T02:16:55.933Z,12.30
2018-04-07T02:19:24.348Z,10.53
2018-04-07T02:21:52.810Z,10.73
2018-04-07T02:24:21.251Z,11.13
2018-04-07T02:26:49.669Z,11.70
2018-04-07T02:29:18.065Z,12.43
2018-04-07T02:31:46.491Z,12.93
2018-04-07T02:34:14.957Z,12.83
2018-04-07T02:36:43.393Z,11.83
2018-04-07T02:39:11.815Z,13.23
2018-04-07T02:41:40.249Z,11.00
2018-04-07T02:44:08.669Z,13.57
2018-04-07T02:46:37.072Z,13.90
2018-04-07T02:49:05.497Z,12.47
2018-04-07T02:51:33.988Z,13.83
2018-04-07T02:54:02.393Z,12.40
2018-04-07T02:56:30.837Z,13.57
2018-04-07T02:58:59.229Z,13.00
2018-04-07T03:01:27.714Z,12.77
2018-04-07T03:03:56.125Z,13.23
2018-04-07T03:06:24.581Z,12.97
2018-04-07T03:08:53.055Z,14.20
2018-04-07T03:11:21.445Z,14.37
2018-04-07T03:13:49.899Z,12.47
2018-04-07T03:16:18.335Z,12.50
2018-04-07T03:18:46.755Z,14.37
2018-04-07T03:21:15.181Z,13.47
2018-04-07T03:23:43.651Z,12.37
2018-04-07T03:26:12.098Z,13.70
2018-04-07T03:28:40.606Z,12.70
2018-04-07T03:31:09.075Z,12.37
2018-04-07T03:33:37.548Z,12.13
2018-04-07T03:36:05.965Z,13.30
2018-04-07T03:38:34.399Z,12.70
2018-04-07T03:41:02.783Z,12.47
2018-04-07T03:43:31.221Z,10.70
2018-04-07T03:45:59.642Z,13.53
2018-04-07T03:48:28.125Z,12.67
2018-04-07T03:50:56.609Z,10.70
2018-04-07T03:53:25.114Z,11.00
2018-04-07T03:55:53.534Z,11.83
2018-04-07T03:58:21.918Z,11.73
2018-04-07T04:00:50.365Z,12.90
2018-04-07T04:03:18.798Z,12.43
2018-04-07T04:05:47.253Z,12.77
2018-04-07T04:08:15.700Z,12.03
2018-04-07T04:10:44.097Z,12.77
2018-04-07T04:13:12.505Z,11.87
2018-04-07T04:15:40.893Z,13.00
2018-04-07T04:18:09.317Z,12.03
2018-04-07T04:20:37.937Z,11.10
2018-04-07T04:23:06.331Z,12.27
2018-04-07T04:25:34.750Z,12.23
2018-04-07T04:28:03.158Z,12.33
2018-04-07T04:30:31.933Z,16.60
2018-04-07T04:33:00.366Z,12.53
2018-04-07T04:35:28.815Z,11.90
2018-04-07T04:37:57.278Z,12.50
2018-04-07T04:40:25.657Z,15.67
2018-04-07T04:42:54.099Z,10.77
2018-04-07T04:45:22.550Z,10.83
2018-04-07T04:47:50.993Z,10.97
2018-04-07T04:50:19.392Z,12.87
2018-04-07T04:52:47.922Z,11.23
2018-04-07T04:55:16.345Z,11.60
2018-04-07T04:57:44.824Z,11.00
2018-04-07T05:00:13.249Z,13.03
2018-04-07T05:02:41.682Z,11.67
2018-04-07T05:05:10.082Z,11.03
2018-04-07T05:07:38.536Z,9.83
2018-04-07T05:10:06.941Z,10.70
2018-04-07T05:12:35.418Z,11.13
2018-04-07T05:15:03.900Z,10.50
2018-04-07T05:17:32.341Z,11.43
2018-04-07T05:20:00.753Z,12.17
2018-04-07T05:22:29.178Z,11.13
2018-04-07T05:24:57.572Z,11.63
2018-04-07T05:27:26.012Z,11.73
2018-04-07T05:29:54.419Z,10.33
2018-04-07T05:32:22.851Z,11.33
2018-04-07T05:34:51.320Z,11.10
2018-04-07T05:37:19.713Z,11.17
2018-04-07T05:39:48.157Z,10.63
2018-04-07T05:42:16.622Z,9.13
2018-04-07T05:44:45.022Z,11.77
2018-04-07T05:47:13.541Z,11.20
2018-04-07T05:49:41.949Z,10.10
2018-04-07T05:52:10.410Z,10.30
2018-04-07T05:54:38.882Z,9.57
2018-04-07T05:57:07.333Z,9.10
2018-04-07T05:59:35.764Z,10.10
2018-04-07T06:02:04.196Z,10.27
2018-04-07T06:04:32.583Z,8.13
2018-04-07T06:07:00.976Z,8.43
2018-04-07T06:09:29.363Z,9.07
2018-04-07T06:11:57.792Z,9.30
2018-04-07T06:14:26.284Z,8.43
2018-04-07T06:16:54.703Z,8.17
2018-04-07T06:19:23.121Z,7.67
2018-04-07T06:21:51.523Z,8.80
2018-04-07T06:24:19.960Z,8.17
2018-04-07T06:26:48.391Z,8.43
2018-04-07T06:29:17.127Z,8.50
2018-04-07T06:31:45.532Z,9.90
2018-04-07T06:34:13.940Z,9.63
2018-04-07T06:36:42.534Z,7.90
2018-04-07T06:39:10.938Z,8.10
2018-04-07T06:41:39.348Z,8.77
2018-04-07T06:44:07.788Z,8.27
2018-04-07T06:46:36.210Z,8.20
2018-04-07T06:49:04.636Z,7.43
2018-04-07T06:51:33.228Z,7.03
2018-04-07T06:54:01.612Z,7.67
2018-04-07T06:56:30.002Z,7.47
2018-04-07T06:58:58.878Z,7.40
2018-04-07T07:01:27.272Z,6.73
2018-04-07T07:03:55.657Z,6.47
2018-04-07T07:06:24.367Z,8.10
2018-04-07T07:08:52.826Z,6.97
2018-04-07T07:11:21.224Z,7.23
2018-04-07T07:13:50.019Z,7.93
2018-04-07T07:16:18.447Z,7.63
2018-04-07T07:18:46.886Z,7.87
2018-04-07T07:21:15.334Z,8.30
2018-04-07T07:23:43.742Z,8.40
2018-04-07T07:26:12.173Z,7.07
2018-04-07T07:28:40.616Z,7.43
2018-04-07T07:31:09.105Z,8.20
2018-04-07T07:33:37.531Z,8.53
2018-04-07T07:36:05.934Z,7.87
2018-04-07T07:38:34.404Z,12.43
2018-04-07T07:41:02.834Z,9.73
2018-04-07T07:43:31.236Z,8.53
2018-04-07T07:45:59.676Z,8.70
2018-04-07T07:48:28.662Z,7.37
2018-04-07T07:50:57.226Z,7.93
2018-04-07T07:53:25.898Z,7.70
2018-04-07T07:55:54.339Z,7.97
2018-04-07T07:58:22.748Z,9.03
2018-04-07T08:00:51.189Z,12.77
2018-04-07T08:03:19.660Z,8.47
2018-04-07T08:05:48.174Z,8.90
2018-04-07T08:08:17.302Z,8.63
2018-04-07T08:10:46.657Z,7.67
2018-04-07T08:13:15.110Z,8.37
2018-04-07T08:15:43.721Z,8.17
2018-04-07T08:18:12.123Z,8.10
2018-04-07T08:20:40.525Z,7.80
2018-04-07T08:23:09.015Z,7.87
2018-04-07T08:25:37.428Z,8.67
2018-04-07T08:28:06.000Z,8.63
2018-04-07T08:30:34.410Z,8.80
2018-04-07T08:33:02.805Z,9.27
2018-04-07T08:35:31.238Z,9.13
2018-04-07T08:37:59.664Z,9.10
2018-04-07T08:40:28.119Z,9.23
2018-04-07T08:42:56.568Z,7.93
2018-04-07T08:45:25.057Z,8.60
2018-04-07T08:47:53.461Z,8.50
2018-04-07T08:50:21.916Z,9.23
2018-04-07T08:55:25.097Z,7.87
2018-04-07T08:57:53.509Z,9.13
2018-04-07T09:00:21.977Z,9.27
2018-04-07T09:02:50.362Z,9.43
2018-04-07T09:05:18.766Z,9.10
2018-04-07T09:07:47.239Z,9.03
2018-04-07T09:10:16.531Z,7.83
2018-04-07T09:12:45.007Z,7.97
2018-04-07T09:15:13.412Z,7.53
2018-04-07T09:17:41.881Z,7.87
2018-04-07T09:20:10.280Z,7.13
2018-04-07T09:22:38.653Z,6.80
2018-04-07T09:25:08.208Z,7.03
2018-04-07T09:27:36.590Z,7.13
2018-04-07T09:30:05.215Z,7.63
2018-04-07T09:32:33.602Z,8.57
2018-04-07T09:35:02.054Z,7.40
2018-04-07T09:37:30.552Z,7.43
2018-04-07T09:39:58.973Z,8.30
2018-04-07T09:42:27.520Z,8.07
2018-04-07T09:44:55.998Z,8.80
2018-04-07T09:47:24.481Z,6.90
2018-04-07T09:49:52.908Z,6.90
2018-04-07T09:52:21.282Z,6.63
2018-04-07T09:54:49.658Z,6.93
2018-04-07T09:57:18.073Z,7.23
2018-04-07T09:59:46.561Z,7.80
2018-04-07T10:02:19.940Z,6.70
2018-04-07T10:04:48.495Z,7.17
2018-04-07T10:07:16.964Z,8.33
2018-04-07T10:09:45.483Z,7.33
2018-04-07T10:12:13.866Z,6.77
2018-04-07T10:14:42.316Z,7.73
2018-04-07T10:17:10.710Z,7.13
2018-04-07T10:19:39.164Z,8.17
2018-04-07T10:22:07.577Z,7.00
2018-04-07T10:24:36.007Z,6.70
2018-04-07T10:27:04.457Z,6.93
2018-04-07T10:29:32.851Z,5.63
2018-04-07T10:32:01.415Z,7.27
2018-04-07T10:34:30.434Z,6.80
2018-04-07T10:36:58.827Z,6.87
2018-04-07T10:39:27.218Z,6.67
2018-04-07T10:41:55.649Z,7.77
2018-04-07T10:44:24.100Z,7.97
2018-04-07T10:46:52.481Z,7.63
2018-04-07T10:49:20.888Z,6.53
2018-04-07T10:51:49.313Z,6.37
2018-04-07T10:54:17.757Z,7.23
2018-04-07T10:56:46.351Z,6.57
2018-04-07T10:59:15.055Z,7.07
2018-04-07T11:01:43.472Z,6.53
2018-04-07T11:04:11.848Z,6.13
2018-04-07T11:06:40.273Z,6.20
2018-04-07T11:09:08.665Z,5.70
2018-04-07T11:11:37.142Z,9.70
2018-04-07T11:14:05.614Z,6.33
2018-04-07T11:16:34.019Z,6.40
2018-04-07T11:19:02.439Z,6.13
2018-04-07T11:21:31.776Z,6.90
2018-04-07T11:24:00.207Z,6.63
2018-04-07T11:26:28.750Z,7.33
2018-04-07T11:28:57.266Z,6.50
2018-04-07T11:31:27.657Z,5.47
2018-04-07T11:33:56.485Z,6.23
2018-04-07T11:36:24.895Z,6.03
2018-04-07T11:38:53.329Z,6.23
2018-04-07T11:41:22.720Z,5.73
2018-04-07T11:43:51.143Z,5.87
2018-04-07T11:46:19.527Z,4.77
2018-04-07T11:48:48.845Z,5.53
2018-04-07T11:51:17.263Z,5.33
2018-04-07T11:53:45.658Z,6.63
2018-04-07T11:56:14.389Z,5.77
2018-04-07T11:58:42.971Z,6.40
2018-04-07T12:01:11.381Z,5.87
2018-04-07T12:03:40.700Z,5.50
2018-04-07T12:06:09.897Z,5.73
2018-04-07T12:08:38.282Z,5.80
2018-04-07T12:11:07.398Z,5.70
2018-04-07T12:13:35.784Z,6.10
2018-04-07T12:16:04.193Z,8.67
2018-04-07T12:18:32.649Z,5.27
2018-04-07T12:21:01.081Z,5.73
2018-04-07T12:23:29.588Z,5.97
2018-04-07T12:25:58.009Z,5.33
2018-04-07T12:28:26.459Z,5.07
2018-04-07T12:30:54.895Z,6.67
2018-04-07T12:33:23.312Z,4.93
2018-04-07T12:35:51.773Z,4.77
2018-04-07T12:38:20.340Z,4.50
2018-04-07T12:40:48.796Z,4.63
2018-04-07T12:43:17.269Z,4.47
2018-04-07T12:45:45.640Z,4.97
2018-04-07T12:48:14.061Z,5.20
2018-04-07T12:50:42.458Z,5.30
2018-04-07T12:53:10.893Z,4.33
2018-04-07T12:55:39.272Z,5.00
2018-04-07T12:58:07.695Z,4.60
2018-04-07T13:00:36.121Z,4.37
2018-04-07T13:03:04.546Z,4.57
2018-04-07T13:05:32.998Z,4.70
2018-04-07T13:08:01.445Z,4.60
2018-04-07T13:10:29.897Z,4.17
2018-04-07T13:12:58.317Z,4.60
2018-04-07T13:15:26.710Z,4.27
2018-04-07T13:17:55.144Z,4.03
2018-04-07T13:20:23.598Z,3.73
2018-04-07T13:22:52.000Z,4.23
2018-04-07T13:25:20.564Z,3.77
2018-04-07T13:27:48.992Z,3.63
2018-04-07T13:30:17.388Z,3.80
2018-04-07T13:32:45.876Z,3.70
2018-04-07T13:35:14.309Z,4.00
2018-04-07T13:37:42.689Z,4.10
2018-04-07T13:40:11.122Z,4.13
2018-04-07T13:42:39.543Z,4.13
2018-04-07T13:45:07.929Z,4.50
2018-04-07T13:47:36.334Z,4.27
2018-04-07T13:50:04.841Z,3.80
2018-04-07T13:52:33.236Z,4.13
2018-04-07T13:55:01.832Z,3.00
2018-04-07T13:57:30.222Z,4.00
2018-04-07T13:59:58.632Z,4.20
2018-04-07T14:02:27.042Z,4.70
2018-04-07T14:04:55.440Z,3.63
2018-04-07T14:07:23.826Z,4.07
2018-04-07T14:09:52.269Z,3.40
2018-04-07T14:12:21.179Z,3.20
2018-04-07T14:14:49.609Z,3.70
2018-04-07T14:17:18.051Z,3.30
2018-04-07T14:19:46.445Z,3.70
2018-04-07T14:22:14.841Z,3.60
2018-04-07T14:24:43.288Z,3.90
2018-04-07T14:27:11.688Z,3.60
2018-04-07T14:29:40.128Z,3.00
2018-04-07T14:32:08.561Z,2.83
2018-04-07T14:34:36.976Z,3.83
2018-04-07T14:37:05.356Z,3.13
2018-04-07T14:39:33.737Z,3.40
2018-04-07T14:42:02.133Z,3.47
2018-04-07T14:44:30.574Z,3.50
2018-04-07T14:46:59.025Z,3.87
2018-04-07T14:49:27.533Z,3.70
2018-04-07T14:51:55.950Z,4.13
2018-04-07T14:54:24.468Z,3.93
2018-04-07T14:56:52.992Z,3.73
2018-04-07T14:59:21.393Z,3.00
2018-04-07T15:01:49.851Z,4.03
2018-04-07T15:04:18.302Z,4.37
2018-04-07T15:06:46.779Z,4.67
2018-04-07T15:09:15.164Z,4.17
2018-04-07T15:11:43.593Z,3.87
2018-04-07T15:14:12.012Z,3.90
2018-04-07T15:16:40.397Z,4.77
2018-04-07T15:19:08.846Z,4.83
2018-04-07T15:21:37.268Z,4.80
2018-04-07T15:24:06.613Z,4.27
2018-04-07T15:26:35.062Z,4.33
2018-04-07T15:29:03.441Z,6.17
2018-04-07T15:31:31.893Z,4.67
2018-04-07T15:34:00.294Z,5.47
2018-04-07T15:36:28.812Z,5.80
2018-04-07T15:38:57.305Z,5.10
2018-04-07T15:41:25.750Z,5.13
2018-04-07T15:43:54.141Z,4.87
2018-04-07T15:46:22.576Z,5.57
2018-04-07T15:48:50.964Z,5.20
2018-04-07T15:51:19.362Z,4.77
2018-04-07T15:53:47.788Z,5.07
2018-04-07T15:56:16.168Z,4.23
2018-04-07T15:58:44.554Z,4.50
2018-04-07T16:01:12.976Z,4.07
2018-04-07T16:03:41.389Z,4.77
2018-04-07T16:06:09.879Z,4.73
2018-04-07T16:08:38.352Z,4.47
2018-04-07T16:11:06.747Z,4.03
2018-04-07T16:13:35.162Z,4.70
2018-04-07T16:16:03.590Z,4.27
2018-04-07T16:18:32.027Z,4.17
2018-04-07T16:21:00.458Z,3.77
2018-04-07T16:23:29.714Z,3.70
2018-04-07T16:25:58.140Z,4.00
2018-04-07T16:28:26.516Z,3.73
2018-04-07T16:30:54.990Z,4.67
2018-04-07T16:33:23.481Z,3.90
2018-04-07T16:35:52.021Z,4.60
2018-04-07T16:38:20.400Z,4.70
2018-04-07T16:40:48.792Z,4.47
2018-04-07T16:43:17.254Z,4.17
2018-04-07T16:45:45.813Z,5.10
2018-04-07T16:48:14.274Z,4.80
2018-04-07T16:50:42.697Z,4.50
2018-04-07T16:53:11.093Z,5.03
2018-04-07T16:55:39.524Z,4.73
2018-04-07T16:58:07.937Z,7.70
2018-04-07T17:00:36.388Z,5.93
2018-04-07T17:03:04.784Z,5.50
2018-04-07T17:05:33.218Z,4.97
2018-04-07T17:08:01.596Z,5.20
2018-04-07T17:10:30.009Z,5.63
2018-04-07T17:12:58.458Z,5.60
2018-04-07T17:15:26.817Z,6.63
2018-04-07T17:17:55.208Z,6.33
2018-04-07T17:20:23.665Z,5.80
2018-04-07T17:22:52.067Z,5.73
2018-04-07T17:25:20.449Z,5.70
2018-04-07T17:27:48.889Z,5.00
2018-04-07T17:30:17.280Z,6.17
2018-04-07T17:32:45.704Z,5.90
2018-04-07T17:35:14.107Z,6.10
2018-04-07T17:37:42.564Z,6.83
2018-04-07T17:40:11.068Z,6.33
2018-04-07T17:42:39.503Z,5.50
2018-04-07T17:45:07.941Z,5.87
2018-04-07T17:47:36.335Z,6.90
2018-04-07T17:50:04.836Z,6.43
2018-04-07T17:52:33.249Z,7.13
2018-04-07T17:55:01.644Z,16.30
2018-04-07T17:57:30.085Z,18.10
2018-04-07T17:59:58.619Z,16.20
2018-04-07T18:02:27.013Z,15.63
2018-04-07T18:04:55.433Z,14.90
2018-04-07T18:07:24.137Z,18.60
2018-04-07T18:09:52.648Z,19.77
2018-04-07T18:12:21.037Z,20.63
2018-04-07T18:14:49.486Z,20.93
2018-04-07T18:17:17.877Z,27.43
2018-04-07T18:19:46.302Z,26.43
2018-04-07T18:22:14.701Z,27.43
2018-04-07T18:24:43.202Z,25.80
2018-04-07T18:27:11.648Z,24.80
2018-04-07T18:29:40.041Z,25.80
2018-04-07T18:32:08.491Z,20.60
2018-04-07T18:34:36.892Z,20.00
2018-04-07T18:37:05.358Z,22.60
2018-04-07T18:39:33.812Z,22.40
2018-04-07T18:42:02.248Z,23.97
2018-04-07T18:44:30.652Z,18.87
2018-04-07T18:46:59.105Z,18.47
2018-04-07T18:49:27.554Z,19.10
2018-04-07T18:51:55.961Z,17.87
2018-04-07T18:54:24.409Z,16.23
2018-04-07T18:56:52.825Z,21.00
2018-04-07T18:59:21.263Z,25.03
2018-04-07T19:01:49.678Z,24.63
2018-04-07T19:04:18.131Z,24.10
2018-04-07T19:06:46.605Z,24.37
2018-04-07T19:09:15.008Z,23.40
2018-04-07T19:11:43.460Z,23.03
2018-04-07T19:14:11.845Z,22.63
2018-04-07T19:16:40.290Z,23.20
2018-04-07T19:19:08.687Z,21.23
2018-04-07T19:21:37.102Z,21.83
2018-04-07T19:24:05.509Z,21.63
2018-04-07T19:26:33.947Z,19.30
2018-04-07T19:29:02.329Z,21.03
2018-04-07T19:31:30.781Z,22.27
2018-04-07T19:33:59.164Z,21.97
2018-04-07T19:36:27.591Z,23.27
2018-04-07T19:38:56.030Z,23.63
2018-04-07T19:41:24.454Z,25.27
2018-04-07T19:43:52.860Z,23.90
2018-04-07T19:46:21.266Z,22.13
2018-04-07T19:48:49.693Z,24.00
2018-04-07T19:51:18.153Z,21.33
2018-04-07T19:53:46.585Z,22.87
2018-04-07T19:56:14.989Z,21.57
2018-04-07T19:58:43.370Z,23.83
2018-04-07T20:01:11.781Z,23.60
2018-04-07T20:03:40.185Z,22.43
2018-04-07T20:06:08.635Z,22.30
2018-04-07T20:08:37.053Z,23.50
2018-04-07T20:11:05.435Z,23.77
2018-04-07T20:13:33.884Z,22.13
2018-04-07T20:16:02.259Z,22.20
2018-04-07T20:18:30.668Z,25.37
2018-04-07T20:20:59.169Z,23.03
2018-04-07T20:23:27.596Z,22.67
2018-04-07T20:25:56.026Z,24.10
2018-04-07T20:28:24.457Z,24.50
2018-04-07T20:30:52.877Z,25.93
2018-04-07T20:33:21.253Z,26.20
2018-04-07T20:35:49.702Z,27.13
2018-04-07T20:38:18.111Z,25.03
2018-04-07T20:40:55.366Z,27.70
2018-04-07T20:43:23.974Z,58.30
2018-04-07T20:45:52.384Z,41.40
2018-04-07T20:48:20.812Z,49.37
2018-04-07T20:50:49.216Z,38.87
2018-04-07T20:53:17.654Z,31.73
2018-04-07T20:55:46.098Z,59.00
2018-04-07T20:58:14.527Z,43.70
2018-04-07T21:00:42.949Z,33.83
2018-04-07T21:03:11.337Z,27.43
2018-04-07T21:05:39.754Z,27.60
2018-04-07T21:08:08.188Z,24.93
2018-04-07T21:10:36.608Z,23.60
2018-04-07T21:13:05.038Z,23.27
2018-04-07T21:15:33.461Z,23.67
2018-04-07T21:18:01.896Z,28.67
2018-04-07T21:20:30.285Z,33.17
2018-04-07T21:22:58.729Z,29.27
2018-04-07T21:25:27.111Z,25.77
2018-04-07T21:27:55.540Z,24.20
2018-04-07T21:30:23.933Z,24.40
2018-04-07T21:32:52.357Z,20.43
2018-04-07T21:35:20.768Z,20.43
2018-04-07T21:37:49.216Z,19.13
2018-04-07T21:40:17.720Z,16.33
2018-04-07T21:42:46.325Z,16.63
2018-04-07T21:45:14.752Z,15.33
2018-04-07T21:47:43.179Z,15.53
2018-04-07T21:50:11.555Z,14.60
2018-04-07T21:52:40.042Z,13.67
2018-04-07T21:55:08.434Z,15.53
2018-04-07T21:57:36.858Z,14.67
2018-04-07T22:00:05.328Z,16.70
2018-04-07T22:02:33.848Z,14.90
2018-04-07T22:05:02.497Z,15.47
2018-04-07T22:07:30.925Z,14.53
2018-04-07T22:09:59.373Z,16.20
2018-04-07T22:12:27.835Z,15.83
2018-04-07T22:14:56.244Z,15.70
2018-04-07T22:17:24.694Z,18.53
2018-04-07T22:19:53.162Z,20.70
2018-04-07T22:22:21.586Z,21.53
2018-04-07T22:24:49.994Z,21.37
2018-04-07T22:27:18.416Z,21.00
2018-04-07T22:29:46.852Z,20.07
2018-04-07T22:32:15.331Z,20.03
2018-04-07T22:34:43.731Z,20.27
2018-04-07T22:37:12.171Z,21.03
2018-04-07T22:39:40.596Z,15.37
2018-04-07T22:42:09.038Z,19.30
2018-04-07T22:44:37.523Z,16.63
2018-04-07T22:47:05.956Z,17.57
2018-04-07T22:49:34.406Z,17.63
2018-04-07T22:52:02.837Z,14.13
2018-04-07T22:54:31.292Z,12.63
2018-04-07T22:56:59.739Z,16.83
2018-04-07T22:59:28.155Z,15.87
2018-04-07T23:01:56.588Z,15.23
2018-04-07T23:04:25.109Z,15.73
2018-04-07T23:06:53.532Z,16.13
2018-04-07T23:09:21.961Z,17.37
2018-04-07T23:11:50.405Z,16.93
2018-04-07T23:14:18.901Z,18.37
2018-04-07T23:16:47.285Z,17.67
2018-04-07T23:19:15.733Z,16.77
2018-04-07T23:21:44.172Z,16.43
2018-04-07T23:24:12.595Z,15.83
2018-04-07T23:26:41.043Z,16.23
2018-04-07T23:29:09.463Z,17.00
2018-04-07T23:31:37.904Z,16.80
2018-04-07T23:34:06.327Z,17.57
2018-04-07T23:36:34.756Z,17.90
2018-04-07T23:39:03.225Z,16.60
2018-04-07T23:41:31.685Z,17.17
2018-04-07T23:44:00.152Z,17.77
2018-04-07T23:46:28.549Z,18.60
2018-04-07T23:48:57.053Z,17.60
2018-04-07T23:51:25.593Z,17.53
2018-04-07T23:53:54.036Z,18.27
2018-04-07T23:56:22.412Z,17.67
2018-04-07T23:58:50.844Z,17.30
